createdAt,value
2017-11-10T00:00:39.192Z,17.17
2017-11-10T00:03:08.093Z,15.77
2017-11-10T00:05:36.960Z,16.30
2017-11-10T00:08:05.821Z,17.70
2017-11-10T00:10:34.704Z,17.70
2017-11-10T00:13:04.365Z,16.10
2017-11-10T00:15:33.239Z,17.43
2017-11-10T00:18:02.109Z,16.80
2017-11-10T00:20:30.979Z,17.90
2017-11-10T00:22:59.831Z,16.73
2017-11-10T00:25:28.709Z,17.60
2017-11-10T00:27:57.582Z,15.90
2017-11-10T00:30:26.491Z,17.80
2017-11-10T00:32:55.392Z,15.47
2017-11-10T00:35:24.286Z,16.97
2017-11-10T00:37:53.168Z,16.60
2017-11-10T00:40:22.058Z,17.00
2017-11-10T00:42:51.055Z,15.00
2017-11-10T00:45:19.955Z,17.30
2017-11-10T00:47:48.835Z,17.20
2017-11-10T00:50:18.175Z,15.10
2017-11-10T00:52:47.043Z,16.90
2017-11-10T00:55:15.943Z,16.03
2017-11-10T00:57:45.679Z,16.13
2017-11-10T01:00:14.538Z,16.03
2017-11-10T01:02:43.429Z,15.70
2017-11-10T01:05:12.333Z,16.10
2017-11-10T01:07:41.232Z,15.50
2017-11-10T01:10:10.109Z,16.70
2017-11-10T01:12:39.033Z,14.73
2017-11-10T01:15:07.922Z,15.03
2017-11-10T01:17:36.838Z,17.27
2017-11-10T01:20:05.743Z,17.10
2017-11-10T01:22:34.659Z,15.77
2017-11-10T01:25:03.531Z,15.73
2017-11-10T01:27:32.429Z,15.63
2017-11-10T01:30:01.325Z,16.37
2017-11-10T01:32:30.232Z,16.80
2017-11-10T01:34:59.097Z,14.67
2017-11-10T01:37:28.028Z,14.70
2017-11-10T01:39:56.918Z,15.07
2017-11-10T01:42:25.782Z,15.63
2017-11-10T01:44:54.667Z,13.93
2017-11-10T01:47:23.574Z,15.27
2017-11-10T01:49:53.393Z,15.80
2017-11-10T01:52:22.297Z,15.17
2017-11-10T01:54:51.195Z,15.07
2017-11-10T01:57:20.080Z,15.63
2017-11-10T01:59:48.980Z,15.33
2017-11-10T02:02:17.866Z,15.90
2017-11-10T02:04:46.752Z,17.10
2017-11-10T02:07:15.663Z,15.27
2017-11-10T02:09:44.547Z,15.77
2017-11-10T02:12:16.246Z,16.40
2017-11-10T02:14:45.154Z,16.13
2017-11-10T02:17:14.076Z,17.07
2017-11-10T02:19:42.960Z,16.27
2017-11-10T02:22:11.870Z,16.27
2017-11-10T02:24:40.775Z,16.27
2017-11-10T02:27:09.940Z,15.87
2017-11-10T02:29:38.828Z,16.73
2017-11-10T02:32:07.695Z,14.70
2017-11-10T02:34:36.613Z,16.20
2017-11-10T02:37:05.489Z,15.57
2017-11-10T02:39:36.132Z,15.33
2017-11-10T02:42:05.021Z,14.90
2017-11-10T02:44:33.932Z,15.50
2017-11-10T02:47:02.827Z,15.50
2017-11-10T02:49:31.730Z,16.53
2017-11-10T02:52:00.619Z,14.20
2017-11-10T02:54:29.547Z,16.07
2017-11-10T02:56:58.440Z,16.10
2017-11-10T02:59:27.348Z,14.97
2017-11-10T03:01:56.223Z,14.60
2017-11-10T03:04:25.138Z,16.20
2017-11-10T03:06:54.004Z,16.37
2017-11-10T03:09:22.918Z,17.47
2017-11-10T03:11:51.783Z,14.90
2017-11-10T03:14:20.686Z,15.10
2017-11-10T03:16:49.684Z,16.40
2017-11-10T03:19:18.605Z,15.30
2017-11-10T03:21:47.482Z,14.27
2017-11-10T03:24:16.363Z,15.50
2017-11-10T03:26:45.279Z,16.50
2017-11-10T03:29:14.196Z,16.03
2017-11-10T03:31:43.068Z,15.80
2017-11-10T03:34:16.799Z,14.73
2017-11-10T03:36:45.670Z,14.77
2017-11-10T03:39:14.563Z,14.47
2017-11-10T03:41:43.440Z,16.30
2017-11-10T03:44:12.291Z,15.03
2017-11-10T03:46:41.190Z,14.40
2017-11-10T03:49:10.070Z,13.37
2017-11-10T03:51:39.047Z,14.93
2017-11-10T03:54:07.902Z,15.00
2017-11-10T03:56:36.769Z,13.40
2017-11-10T03:59:05.637Z,13.73
2017-11-10T04:01:34.578Z,13.80
2017-11-10T04:04:03.451Z,13.40
2017-11-10T04:06:32.334Z,13.23
2017-11-10T04:09:01.207Z,13.53
2017-11-10T04:11:30.083Z,12.77
2017-11-10T04:13:58.939Z,13.77
2017-11-10T04:16:27.834Z,13.20
2017-11-10T04:18:56.706Z,11.87
2017-11-10T04:21:25.563Z,13.13
2017-11-10T04:23:54.437Z,12.07
2017-11-10T04:26:23.306Z,12.47
2017-11-10T04:28:52.155Z,12.00
2017-11-10T04:31:21.035Z,12.93
2017-11-10T04:33:49.922Z,11.87
2017-11-10T04:36:18.795Z,13.10
2017-11-10T04:38:47.660Z,12.00
2017-11-10T04:41:16.543Z,12.80
2017-11-10T04:43:45.428Z,13.20
2017-11-10T04:46:14.276Z,12.30
2017-11-10T04:48:43.181Z,12.63
2017-11-10T04:51:12.045Z,13.97
2017-11-10T04:53:40.925Z,12.10
2017-11-10T04:56:09.778Z,11.80
2017-11-10T04:58:38.716Z,12.23
2017-11-10T05:01:07.571Z,12.50
2017-11-10T05:03:36.440Z,13.13
2017-11-10T05:06:05.287Z,12.50
2017-11-10T05:08:34.179Z,12.57
2017-11-10T05:11:03.052Z,11.77
2017-11-10T05:13:31.899Z,11.50
2017-11-10T05:16:00.795Z,11.40
2017-11-10T05:18:29.675Z,11.70
2017-11-10T05:20:58.622Z,11.07
2017-11-10T05:23:27.503Z,12.43
2017-11-10T05:25:56.393Z,12.10
2017-11-10T05:28:25.268Z,10.13
2017-11-10T05:30:54.169Z,12.13
2017-11-10T05:33:23.035Z,12.10
2017-11-10T05:35:51.920Z,12.00
2017-11-10T05:38:20.784Z,10.40
2017-11-10T05:40:49.659Z,11.40
2017-11-10T05:43:18.548Z,10.83
2017-11-10T05:45:47.415Z,11.33
2017-11-10T05:48:16.297Z,11.40
2017-11-10T05:50:45.170Z,11.60
2017-11-10T05:53:14.061Z,11.00
2017-11-10T05:55:42.937Z,11.73
2017-11-10T05:58:11.875Z,11.53
2017-11-10T06:00:40.744Z,10.97
2017-11-10T06:03:09.606Z,12.67
2017-11-10T06:05:38.501Z,10.80
2017-11-10T06:08:07.366Z,12.90
2017-11-10T06:10:36.239Z,11.53
2017-11-10T06:13:05.111Z,10.37
2017-11-10T06:15:33.987Z,11.00
2017-11-10T06:18:02.844Z,11.33
2017-11-10T06:20:31.804Z,12.37
2017-11-10T06:23:00.665Z,11.13
2017-11-10T06:25:29.546Z,12.93
2017-11-10T06:27:58.446Z,13.03
2017-11-10T06:30:27.332Z,11.43
2017-11-10T06:32:56.351Z,11.67
2017-11-10T06:35:25.238Z,11.43
2017-11-10T06:37:54.173Z,12.17
2017-11-10T06:40:23.034Z,12.20
2017-11-10T06:42:51.960Z,13.13
2017-11-10T06:45:20.830Z,13.23
2017-11-10T06:47:49.738Z,13.23
2017-11-10T06:50:18.608Z,13.30
2017-11-10T06:52:47.549Z,14.60
2017-11-10T06:55:16.429Z,14.20
2017-11-10T06:57:45.292Z,16.33
2017-11-10T07:00:14.160Z,14.13
2017-11-10T07:02:43.104Z,14.90
2017-11-10T07:05:11.988Z,12.77
2017-11-10T07:07:40.897Z,17.33
2017-11-10T07:10:09.792Z,16.03
2017-11-10T07:12:38.656Z,14.00
2017-11-10T07:15:07.540Z,14.50
2017-11-10T07:17:36.429Z,15.50
2017-11-10T07:20:05.359Z,13.10
2017-11-10T07:22:34.211Z,13.67
2017-11-10T07:25:03.118Z,13.60
2017-11-10T07:27:31.979Z,13.77
2017-11-10T07:30:00.876Z,14.07
2017-11-10T07:32:29.783Z,14.13
2017-11-10T07:34:58.656Z,14.00
2017-11-10T07:37:27.533Z,13.67
2017-11-10T07:39:56.401Z,13.20
2017-11-10T07:42:25.281Z,13.97
2017-11-10T07:44:54.184Z,14.10
2017-11-10T07:47:23.067Z,14.27
2017-11-10T07:49:51.922Z,12.57
2017-11-10T07:52:20.831Z,13.73
2017-11-10T07:54:49.686Z,13.60
2017-11-10T07:57:18.567Z,13.93
2017-11-10T07:59:47.433Z,12.07
2017-11-10T08:02:16.325Z,13.23
2017-11-10T08:04:45.191Z,13.00
2017-11-10T08:07:14.063Z,14.80
2017-11-10T08:09:42.954Z,13.37
2017-11-10T08:12:11.837Z,11.63
2017-11-10T08:14:40.707Z,13.63
2017-11-10T08:17:09.588Z,14.73
2017-11-10T08:19:38.452Z,13.83
2017-11-10T08:22:07.350Z,13.90
2017-11-10T08:24:36.207Z,14.00
2017-11-10T08:27:05.088Z,12.93
2017-11-10T08:29:33.983Z,13.07
2017-11-10T08:32:02.852Z,14.00
2017-11-10T08:34:31.743Z,13.30
2017-11-10T08:37:00.625Z,13.60
2017-11-10T08:39:29.511Z,13.60
2017-11-10T08:41:58.388Z,13.50
2017-11-10T08:44:27.308Z,14.37
2017-11-10T08:46:56.165Z,14.93
2017-11-10T08:49:25.035Z,14.20
2017-11-10T08:51:53.902Z,13.67
2017-11-10T08:54:22.779Z,14.83
2017-11-10T08:56:51.691Z,15.50
2017-11-10T08:59:20.569Z,14.77
2017-11-10T09:01:49.445Z,15.53
2017-11-10T09:04:18.307Z,15.50
2017-11-10T09:06:47.217Z,15.80
2017-11-10T09:09:16.144Z,14.73
2017-11-10T09:11:45.144Z,15.10
2017-11-10T09:14:14.117Z,16.47
2017-11-10T09:16:42.993Z,17.43
2017-11-10T09:19:11.881Z,17.60
2017-11-10T09:21:40.748Z,16.57
2017-11-10T09:24:09.640Z,16.53
2017-11-10T09:26:38.554Z,17.13
2017-11-10T09:29:23.262Z,17.17
2017-11-10T09:32:02.073Z,15.73
2017-11-10T09:34:36.644Z,16.77
2017-11-10T09:37:24.230Z,17.20
2017-11-10T09:39:56.641Z,17.47
2017-11-10T09:42:26.105Z,17.10
2017-11-10T09:45:13.787Z,18.93
2017-11-10T09:47:58.352Z,16.13
2017-11-10T09:50:33.113Z,18.03
2017-11-10T09:53:02.551Z,17.30
2017-11-10T09:55:42.014Z,16.60
2017-11-10T09:58:18.526Z,16.57
2017-11-10T10:00:47.532Z,18.43
2017-11-10T10:03:27.226Z,17.73
2017-11-10T10:06:16.958Z,18.40
2017-11-10T10:09:05.710Z,18.77
2017-11-10T10:11:40.231Z,17.60
2017-11-10T10:14:25.823Z,17.83
2017-11-10T10:17:00.707Z,18.67
2017-11-10T10:19:46.399Z,18.17
2017-11-10T10:22:16.862Z,18.20
2017-11-10T10:24:45.772Z,17.57
2017-11-10T10:27:14.764Z,18.03
2017-11-10T10:29:43.628Z,16.70
2017-11-10T10:32:12.508Z,18.10
2017-11-10T10:34:41.372Z,16.50
2017-11-10T10:37:10.275Z,18.23
2017-11-10T10:39:39.145Z,34.23
2017-11-10T10:42:08.013Z,17.93
2017-11-10T10:44:36.894Z,17.40
2017-11-10T10:47:05.816Z,17.93
2017-11-10T10:49:34.683Z,17.97
2017-11-10T10:52:03.570Z,18.47
2017-11-10T10:54:32.455Z,19.40
2017-11-10T10:57:01.324Z,16.57
2017-11-10T10:59:30.192Z,17.60
2017-11-10T11:01:59.069Z,16.67
2017-11-10T11:04:27.941Z,18.13
2017-11-10T11:06:56.808Z,17.70
2017-11-10T11:09:25.688Z,15.63
2017-11-10T11:11:54.567Z,16.57
2017-11-10T11:14:23.451Z,16.43
2017-11-10T11:16:52.324Z,18.70
2017-11-10T11:19:21.201Z,17.50
2017-11-10T11:21:50.062Z,15.97
2017-11-10T11:24:18.931Z,16.40
2017-11-10T11:26:47.804Z,15.57
2017-11-10T11:29:16.711Z,16.53
2017-11-10T11:31:45.586Z,15.30
2017-11-10T11:34:14.455Z,14.63
2017-11-10T11:36:43.343Z,16.60
2017-11-10T11:39:12.208Z,14.63
2017-11-10T11:41:41.100Z,15.60
2017-11-10T11:44:09.979Z,17.03
2017-11-10T11:46:38.852Z,16.97
2017-11-10T11:49:07.700Z,16.07
2017-11-10T11:51:36.648Z,16.30
2017-11-10T11:54:05.517Z,16.63
2017-11-10T11:56:34.403Z,15.80
2017-11-10T11:59:03.276Z,15.03
2017-11-10T12:01:32.311Z,16.40
2017-11-10T12:04:01.191Z,15.27
2017-11-10T12:06:30.082Z,15.53
2017-11-10T12:08:58.948Z,17.23
2017-11-10T12:11:27.828Z,17.50
2017-11-10T12:13:56.700Z,16.03
2017-11-10T12:16:25.604Z,15.30
2017-11-10T12:18:54.492Z,17.50
2017-11-10T12:21:23.376Z,16.00
2017-11-10T12:23:52.227Z,15.57
2017-11-10T12:26:21.109Z,16.77
2017-11-10T12:28:49.974Z,14.93
2017-11-10T12:31:18.846Z,16.20
2017-11-10T12:33:47.695Z,16.70
2017-11-10T12:36:16.570Z,16.90
2017-11-10T12:38:45.421Z,16.57
2017-11-10T12:41:14.307Z,17.83
2017-11-10T12:43:43.206Z,17.20
2017-11-10T12:46:12.076Z,16.23
2017-11-10T12:48:40.920Z,16.43
2017-11-10T12:51:09.813Z,15.60
2017-11-10T12:53:38.749Z,16.23
2017-11-10T12:56:07.722Z,17.07
2017-11-10T12:58:36.596Z,15.37
2017-11-10T13:01:05.520Z,14.70
2017-11-10T13:03:34.395Z,15.53
2017-11-10T13:06:03.295Z,15.57
2017-11-10T13:08:32.175Z,14.53
2017-11-10T13:11:01.053Z,15.67
2017-11-10T13:13:29.905Z,16.00
2017-11-10T13:15:58.795Z,15.50
2017-11-10T13:18:27.771Z,14.93
2017-11-10T13:20:56.651Z,14.70
2017-11-10T13:23:25.509Z,14.13
2017-11-10T13:25:54.396Z,14.27
2017-11-10T13:28:23.271Z,15.67
2017-11-10T13:30:52.169Z,14.27
2017-11-10T13:33:21.011Z,14.77
2017-11-10T13:35:49.921Z,15.33
2017-11-10T13:38:18.803Z,15.77
2017-11-10T13:40:47.686Z,15.30
2017-11-10T13:43:16.588Z,15.70
2017-11-10T13:45:45.533Z,16.43
2017-11-10T13:48:14.407Z,15.13
2017-11-10T13:50:43.310Z,14.67
2017-11-10T13:53:12.220Z,13.43
2017-11-10T13:55:41.085Z,14.80
2017-11-10T13:58:10.001Z,14.93
2017-11-10T14:00:38.868Z,16.57
2017-11-10T14:03:07.753Z,14.93
2017-11-10T14:05:36.616Z,14.37
2017-11-10T14:08:05.496Z,14.50
2017-11-10T14:10:34.348Z,14.90
2017-11-10T14:13:03.241Z,14.00
2017-11-10T14:15:32.148Z,15.60
2017-11-10T14:18:01.016Z,13.87
2017-11-10T14:20:29.964Z,13.30
2017-11-10T14:22:58.922Z,13.63
2017-11-10T14:25:27.800Z,14.20
2017-11-10T14:27:56.765Z,14.77
2017-11-10T14:30:25.666Z,13.67
2017-11-10T14:32:54.535Z,13.90
2017-11-10T14:35:23.445Z,14.33
2017-11-10T14:37:52.351Z,15.13
2017-11-10T14:40:21.243Z,13.97
2017-11-10T14:42:50.109Z,15.87
2017-11-10T14:45:19.001Z,14.87
2017-11-10T14:47:47.864Z,12.43
2017-11-10T14:50:16.757Z,13.37
2017-11-10T14:52:45.603Z,13.47
2017-11-10T14:55:14.510Z,14.77
2017-11-10T14:57:43.363Z,14.83
2017-11-10T15:00:12.374Z,13.60
2017-11-10T15:02:41.344Z,13.63
2017-11-10T15:05:10.210Z,14.50
2017-11-10T15:07:39.097Z,15.27
2017-11-10T15:10:07.959Z,14.93
2017-11-10T15:12:36.850Z,14.30
2017-11-10T15:15:05.714Z,13.37
2017-11-10T15:17:34.604Z,15.20
2017-11-10T15:20:03.476Z,14.13
2017-11-10T15:22:32.382Z,14.10
2017-11-10T15:25:01.277Z,14.30
2017-11-10T15:27:30.291Z,15.93
2017-11-10T15:29:59.156Z,14.80
2017-11-10T15:32:28.052Z,14.20
2017-11-10T15:34:56.937Z,13.70
2017-11-10T15:37:25.888Z,14.27
2017-11-10T15:39:54.766Z,13.40
2017-11-10T15:42:23.653Z,14.60
2017-11-10T15:44:52.504Z,14.97
2017-11-10T15:47:21.409Z,15.00
2017-11-10T15:49:50.284Z,14.80
2017-11-10T15:52:19.176Z,14.37
2017-11-10T15:54:48.033Z,14.57
2017-11-10T15:57:16.920Z,13.87
2017-11-10T15:59:45.800Z,14.27
2017-11-10T16:02:14.718Z,15.53
2017-11-10T16:04:43.619Z,14.07
2017-11-10T16:07:12.501Z,15.27
2017-11-10T16:09:41.378Z,15.10
2017-11-10T16:12:10.261Z,14.93
2017-11-10T16:14:39.151Z,14.77
2017-11-10T16:17:08.007Z,14.87
2017-11-10T16:19:36.966Z,13.50
2017-11-10T16:22:05.822Z,14.38
2017-11-10T16:24:34.987Z,13.33
2017-11-10T16:27:04.044Z,14.80
2017-11-10T16:29:32.982Z,13.47
2017-11-10T16:32:01.868Z,14.30
2017-11-10T16:34:30.773Z,13.70
2017-11-10T16:36:59.652Z,14.30
2017-11-10T16:39:28.541Z,12.20
2017-11-10T16:41:57.403Z,12.23
2017-11-10T16:44:26.321Z,13.53
2017-11-10T16:46:55.197Z,12.33
2017-11-10T16:49:24.077Z,12.23
2017-11-10T16:51:52.927Z,12.27
2017-11-10T16:54:21.819Z,11.00
2017-11-10T16:56:50.688Z,11.47
2017-11-10T16:59:19.561Z,11.20
2017-11-10T17:01:48.425Z,10.33
2017-11-10T17:04:17.335Z,10.43
2017-11-10T17:06:46.220Z,10.43
2017-11-10T17:09:15.132Z,11.70
2017-11-10T17:11:44.002Z,10.90
2017-11-10T17:14:12.856Z,10.50
2017-11-10T17:16:41.720Z,9.10
2017-11-10T17:19:10.581Z,9.20
2017-11-10T17:21:39.465Z,8.73
2017-11-10T17:24:08.320Z,8.63
2017-11-10T17:26:37.216Z,9.20
2017-11-10T17:29:06.103Z,12.00
2017-11-10T17:31:35.041Z,8.20
2017-11-10T17:34:03.908Z,8.87
2017-11-10T17:36:32.820Z,7.83
2017-11-10T17:39:01.721Z,8.60
2017-11-10T17:41:30.611Z,7.90
2017-11-10T17:43:59.505Z,7.93
2017-11-10T17:46:28.403Z,7.83
2017-11-10T17:48:57.276Z,8.73
2017-11-10T17:51:26.149Z,7.30
2017-11-10T17:53:55.041Z,7.17
2017-11-10T17:56:23.890Z,7.23
2017-11-10T17:58:52.839Z,6.97
2017-11-10T18:01:21.695Z,6.50
2017-11-10T18:03:50.581Z,7.47
2017-11-10T18:06:19.443Z,5.70
2017-11-10T18:08:48.312Z,5.43
2017-11-10T18:11:17.178Z,5.77
2017-11-10T18:13:46.079Z,5.73
2017-11-10T18:16:14.934Z,5.67
2017-11-10T18:18:43.799Z,5.17
2017-11-10T18:21:12.784Z,5.43
2017-11-10T18:23:41.647Z,5.33
2017-11-10T18:26:10.546Z,6.10
2017-11-10T18:28:39.411Z,5.60
2017-11-10T18:31:08.296Z,5.07
2017-11-10T18:33:37.183Z,4.97
2017-11-10T18:36:06.066Z,5.07
2017-11-10T18:38:34.965Z,5.43
2017-11-10T18:41:03.840Z,5.10
2017-11-10T18:43:32.781Z,5.70
2017-11-10T18:46:01.640Z,4.70
2017-11-10T18:48:34.360Z,5.30
2017-11-10T18:51:03.224Z,4.40
2017-11-10T18:53:38.018Z,4.00
2017-11-10T18:56:06.916Z,5.33
2017-11-10T18:58:35.799Z,5.30
2017-11-10T19:01:04.687Z,4.27
2017-11-10T19:03:33.559Z,4.40
2017-11-10T19:06:02.431Z,4.60
2017-11-10T19:08:31.291Z,4.40
2017-11-10T19:11:00.191Z,4.03
2017-11-10T19:13:29.067Z,3.50
2017-11-10T19:15:57.951Z,3.70
2017-11-10T19:18:26.820Z,3.63
2017-11-10T19:20:55.694Z,4.23
2017-11-10T19:23:24.556Z,3.53
2017-11-10T19:25:53.427Z,3.30
2017-11-10T19:28:22.288Z,3.40
2017-11-10T19:30:51.158Z,3.20
2017-11-10T19:33:20.037Z,3.80
2017-11-10T19:35:48.944Z,3.70
2017-11-10T19:38:17.858Z,3.00
2017-11-10T19:40:46.764Z,2.80
2017-11-10T19:43:16.449Z,2.90
2017-11-10T19:45:45.324Z,2.80
2017-11-10T19:48:14.201Z,3.20
2017-11-10T19:50:43.044Z,3.67
2017-11-10T19:53:12.263Z,2.93
2017-11-10T19:55:41.142Z,2.90
2017-11-10T19:58:10.319Z,3.40
2017-11-10T20:00:39.172Z,3.10
2017-11-10T20:03:08.067Z,2.70
2017-11-10T20:05:36.932Z,3.70
2017-11-10T20:08:05.795Z,3.27
2017-11-10T20:10:34.684Z,3.20
2017-11-10T20:13:03.536Z,2.40
2017-11-10T20:15:32.521Z,4.07
2017-11-10T20:18:01.398Z,3.63
2017-11-10T20:20:30.282Z,2.77
2017-11-10T20:22:59.220Z,3.37
2017-11-10T20:25:28.103Z,2.73
2017-11-10T20:27:56.997Z,3.60
2017-11-10T20:30:26.395Z,4.00
2017-11-10T20:32:55.287Z,3.30
2017-11-10T20:35:24.168Z,3.20
2017-11-10T20:37:53.040Z,2.70
2017-11-10T20:40:22.367Z,3.50
2017-11-10T20:42:51.308Z,4.20
2017-11-10T20:45:20.208Z,3.60
2017-11-10T20:47:49.137Z,3.07
2017-11-10T20:50:18.089Z,4.70
2017-11-10T20:52:46.961Z,3.00
2017-11-10T20:55:15.841Z,3.07
2017-11-10T20:57:44.695Z,3.40
2017-11-10T21:00:13.572Z,2.90
2017-11-10T21:02:42.428Z,2.90
2017-11-10T21:05:11.284Z,4.13
2017-11-10T21:07:40.162Z,3.50
2017-11-10T21:10:09.009Z,2.90
2017-11-10T21:12:37.882Z,3.60
2017-11-10T21:15:06.738Z,3.93
2017-11-10T21:17:35.624Z,3.87
2017-11-10T21:20:04.477Z,3.47
2017-11-10T21:22:33.355Z,4.47
2017-11-10T21:25:02.190Z,3.93
2017-11-10T21:27:31.060Z,3.80
2017-11-10T21:29:59.907Z,3.93
2017-11-10T21:32:28.783Z,3.30
2017-11-10T21:34:57.659Z,3.53
2017-11-10T21:37:26.517Z,3.60
2017-11-10T21:39:55.374Z,3.50
2017-11-10T21:42:24.247Z,3.33
2017-11-10T21:44:53.125Z,3.50
2017-11-10T21:47:22.048Z,4.40
2017-11-10T21:49:50.943Z,4.13
2017-11-10T21:52:19.794Z,2.73
2017-11-10T21:54:48.700Z,3.80
2017-11-10T21:57:17.630Z,3.20
2017-11-10T21:59:46.497Z,2.57
2017-11-10T22:02:15.359Z,2.73
2017-11-10T22:04:44.225Z,3.53
2017-11-10T22:07:13.091Z,3.20
2017-11-10T22:09:41.979Z,3.47
2017-11-10T22:12:10.841Z,3.47
2017-11-10T22:14:39.699Z,3.00
2017-11-10T22:17:08.572Z,2.77
2017-11-10T22:19:37.462Z,3.30
2017-11-10T22:22:06.314Z,3.33
2017-11-10T22:24:35.175Z,3.10
2017-11-10T22:27:04.075Z,2.87
2017-11-10T22:29:32.946Z,3.17
2017-11-10T22:32:01.805Z,2.90
2017-11-10T22:34:30.709Z,2.33
2017-11-10T22:36:59.570Z,3.40
2017-11-10T22:39:28.451Z,2.70
2017-11-10T22:41:57.294Z,3.70
2017-11-10T22:44:26.181Z,3.20
2017-11-10T22:46:55.053Z,3.20
2017-11-10T22:49:23.924Z,2.97
2017-11-10T22:51:52.797Z,3.40
2017-11-10T22:54:21.674Z,3.20
2017-11-10T22:56:50.538Z,3.03
2017-11-10T22:59:19.427Z,2.90
2017-11-10T23:01:48.288Z,2.50
2017-11-10T23:04:17.180Z,3.27
2017-11-10T23:06:46.032Z,3.33
2017-11-10T23:09:14.902Z,3.20
2017-11-10T23:11:43.817Z,3.93
2017-11-10T23:14:12.682Z,3.90
2017-11-10T23:16:41.531Z,3.97
2017-11-10T23:19:10.408Z,4.00
2017-11-10T23:21:39.251Z,3.60
2017-11-10T23:24:08.119Z,3.93
2017-11-10T23:26:37.006Z,3.87
2017-11-10T23:29:05.938Z,4.03
2017-11-10T23:31:34.788Z,4.97
2017-11-10T23:34:03.636Z,5.30
2017-11-10T23:36:32.501Z,3.80
2017-11-10T23:39:01.349Z,4.97
2017-11-10T23:41:30.228Z,5.23
2017-11-10T23:43:59.084Z,5.20
2017-11-10T23:46:27.947Z,5.93
2017-11-10T23:48:56.811Z,5.60
2017-11-10T23:51:25.711Z,5.63
2017-11-10T23:53:54.563Z,5.40
2017-11-10T23:56:23.467Z,6.00
2017-11-10T23:58:52.367Z,6.10
